KIWD Weather

FAA AWOS (Automated Weather Observing System)

Weather observations for the last 3 days click here.

KIWD

METAR
KIWD 251156Z AUTO 08007KT 10SM CLR 09/07 A2976 RMK AO2 SLP081 70002 T00890067 10089 20033 51003
KIWD 251056Z AUTO 09003KT 10SM OVC044 07/07 A2976 RMK AO2 SLP081 T00720067
TAF
KIWD 251133Z 2512/2612 12003KT P6SM SCT040 FM251800 03006KT P6SM SCT035 FM260000 08005KT P6SM BKN080 FM260700 17004KT P6SM BKN080